sensor_id;sensor_type;location;lat;lon;timestamp;P1;durP1;ratioP1;P2;durP2;ratioP2
11651;SDS011;5882;48.818;9.114;2023-11-21T00:01:18;1.13;;;0.85;;
11651;SDS011;5882;48.818;9.114;2023-11-21T00:04:07;1.00;;;1.00;;
11651;SDS011;5882;48.818;9.114;2023-11-21T00:06:52;1.10;;;1.00;;
11651;SDS011;5882;48.818;9.114;2023-11-21T00:09:39;0.80;;;0.80;;
11651;SDS011;5882;48.818;9.114;2023-11-21T00:12:25;0.93;;;0.93;;
11651;SDS011;5882;48.818;9.114;2023-11-21T00:15:11;1.35;;;1.10;;
11651;SDS011;5882;48.818;9.114;2023-11-21T00:17:57;0.90;;;0.90;;
11651;SDS011;5882;48.818;9.114;2023-11-21T00:20:42;0.88;;;0.88;;
11651;SDS011;5882;48.818;9.114;2023-11-21T00:23:27;1.10;;;1.10;;
11651;SDS011;5882;48.818;9.114;2023-11-21T00:26:13;0.80;;;0.80;;
11651;SDS011;5882;48.818;9.114;2023-11-21T00:28:59;1.73;;;0.90;;
11651;SDS011;5882;48.818;9.114;2023-11-21T00:31:44;0.90;;;0.85;;
11651;SDS011;5882;48.818;9.114;2023-11-21T00:34:34;0.85;;;0.85;;
11651;SDS011;5882;48.818;9.114;2023-11-21T00:37:19;1.00;;;1.00;;
11651;SDS011;5882;48.818;9.114;2023-11-21T00:40:05;0.80;;;0.80;;
11651;SDS011;5882;48.818;9.114;2023-11-21T00:42:55;0.80;;;0.80;;
11651;SDS011;5882;48.818;9.114;2023-11-21T00:45:40;0.90;;;0.90;;
11651;SDS011;5882;48.818;9.114;2023-11-21T00:48:26;1.10;;;1.10;;
11651;SDS011;5882;48.818;9.114;2023-11-21T00:51:14;0.90;;;0.90;;
11651;SDS011;5882;48.818;9.114;2023-11-21T00:53:59;0.80;;;0.80;;
11651;SDS011;5882;48.818;9.114;2023-11-21T00:56:45;0.90;;;0.90;;
11651;SDS011;5882;48.818;9.114;2023-11-21T00:59:32;2.08;;;1.10;;
11651;SDS011;5882;48.818;9.114;2023-11-21T01:02:18;0.93;;;0.93;;
11651;SDS011;5882;48.818;9.114;2023-11-21T01:05:05;1.05;;;0.90;;
11651;SDS011;5882;48.818;9.114;2023-11-21T01:07:57;0.80;;;0.80;;
11651;SDS011;5882;48.818;9.114;2023-11-21T01:10:42;1.10;;;1.00;;
11651;SDS011;5882;48.818;9.114;2023-11-21T01:13:27;1.20;;;1.10;;
11651;SDS011;5882;48.818;9.114;2023-11-21T01:16:14;1.13;;;1.02;;
11651;SDS011;5882;48.818;9.114;2023-11-21T01:18:59;1.40;;;1.02;;
11651;SDS011;5882;48.818;9.114;2023-11-21T01:21:44;1.20;;;0.90;;
11651;SDS011;5882;48.818;9.114;2023-11-21T01:24:29;0.98;;;0.90;;
11651;SDS011;5882;48.818;9.114;2023-11-21T01:27:15;0.80;;;0.80;;
11651;SDS011;5882;48.818;9.114;2023-11-21T01:30:01;1.08;;;0.95;;
11651;SDS011;5882;48.818;9.114;2023-11-21T01:32:51;0.80;;;0.80;;
11651;SDS011;5882;48.818;9.114;2023-11-21T01:35:36;0.82;;;0.82;;
11651;SDS011;5882;48.818;9.114;2023-11-21T01:38:21;2.67;;;1.08;;
11651;SDS011;5882;48.818;9.114;2023-11-21T01:41:06;0.70;;;0.70;;
11651;SDS011;5882;48.818;9.114;2023-11-21T01:43:51;0.65;;;0.65;;
11651;SDS011;5882;48.818;9.114;2023-11-21T01:46:40;1.48;;;0.80;;
11651;SDS011;5882;48.818;9.114;2023-11-21T01:49:27;1.15;;;0.90;;
11651;SDS011;5882;48.818;9.114;2023-11-21T01:52:12;0.80;;;0.80;;
11651;SDS011;5882;48.818;9.114;2023-11-21T01:54:58;0.80;;;0.80;;
11651;SDS011;5882;48.818;9.114;2023-11-21T01:57:44;0.90;;;0.90;;
11651;SDS011;5882;48.818;9.114;2023-11-21T02:00:30;1.23;;;1.00;;
11651;SDS011;5882;48.818;9.114;2023-11-21T02:03:17;1.20;;;0.90;;
11651;SDS011;5882;48.818;9.114;2023-11-21T02:06:04;0.90;;;0.90;;
11651;SDS011;5882;48.818;9.114;2023-11-21T02:08:50;0.90;;;0.90;;
11651;SDS011;5882;48.818;9.114;2023-11-21T02:11:35;0.70;;;0.70;;
11651;SDS011;5882;48.818;9.114;2023-11-21T02:14:22;0.70;;;0.70;;
11651;SDS011;5882;48.818;9.114;2023-11-21T02:17:10;0.80;;;0.75;;
11651;SDS011;5882;48.818;9.114;2023-11-21T02:19:56;0.80;;;0.80;;
11651;SDS011;5882;48.818;9.114;2023-11-21T02:22:43;0.90;;;0.90;;
11651;SDS011;5882;48.818;9.114;2023-11-21T02:25:31;0.80;;;0.80;;
11651;SDS011;5882;48.818;9.114;2023-11-21T02:28:16;0.85;;;0.85;;
11651;SDS011;5882;48.818;9.114;2023-11-21T02:31:12;0.80;;;0.80;;
11651;SDS011;5882;48.818;9.114;2023-11-21T02:33:57;0.80;;;0.80;;
11651;SDS011;5882;48.818;9.114;2023-11-21T02:36:44;2.15;;;0.90;;
11651;SDS011;5882;48.818;9.114;2023-11-21T02:39:29;0.70;;;0.70;;
11651;SDS011;5882;48.818;9.114;2023-11-21T02:42:20;1.90;;;0.80;;
11651;SDS011;5882;48.818;9.114;2023-11-21T02:45:08;0.80;;;0.77;;
11651;SDS011;5882;48.818;9.114;2023-11-21T02:47:56;1.05;;;1.05;;
11651;SDS011;5882;48.818;9.114;2023-11-21T02:50:41;0.70;;;0.70;;
11651;SDS011;5882;48.818;9.114;2023-11-21T02:53:27;0.80;;;0.80;;
11651;SDS011;5882;48.818;9.114;2023-11-21T02:56:12;0.73;;;0.73;;
11651;SDS011;5882;48.818;9.114;2023-11-21T02:58:59;0.80;;;0.80;;
11651;SDS011;5882;48.818;9.114;2023-11-21T03:01:45;0.70;;;0.70;;
11651;SDS011;5882;48.818;9.114;2023-11-21T03:04:33;0.70;;;0.70;;
11651;SDS011;5882;48.818;9.114;2023-11-21T03:07:19;0.70;;;0.70;;
11651;SDS011;5882;48.818;9.114;2023-11-21T03:10:06;0.70;;;0.70;;
11651;SDS011;5882;48.818;9.114;2023-11-21T03:12:53;0.77;;;0.77;;
11651;SDS011;5882;48.818;9.114;2023-11-21T03:15:39;0.80;;;0.80;;
11651;SDS011;5882;48.818;9.114;2023-11-21T03:18:26;0.70;;;0.70;;
11651;SDS011;5882;48.818;9.114;2023-11-21T03:21:13;0.68;;;0.68;;
11651;SDS011;5882;48.818;9.114;2023-11-21T03:23:58;0.70;;;0.70;;
11651;SDS011;5882;48.818;9.114;2023-11-21T03:26:44;0.77;;;0.77;;
11651;SDS011;5882;48.818;9.114;2023-11-21T03:29:29;0.80;;;0.80;;
11651;SDS011;5882;48.818;9.114;2023-11-21T03:32:15;0.70;;;0.70;;
11651;SDS011;5882;48.818;9.114;2023-11-21T03:35:01;0.70;;;0.70;;
11651;SDS011;5882;48.818;9.114;2023-11-21T03:37:47;0.60;;;0.60;;
11651;SDS011;5882;48.818;9.114;2023-11-21T03:40:32;0.80;;;0.80;;
11651;SDS011;5882;48.818;9.114;2023-11-21T03:43:18;0.75;;;0.68;;
11651;SDS011;5882;48.818;9.114;2023-11-21T03:46:05;0.80;;;0.80;;
11651;SDS011;5882;48.818;9.114;2023-11-21T03:48:55;0.73;;;0.73;;
11651;SDS011;5882;48.818;9.114;2023-11-21T03:51:40;0.90;;;0.90;;
11651;SDS011;5882;48.818;9.114;2023-11-21T03:54:25;0.90;;;0.90;;
11651;SDS011;5882;48.818;9.114;2023-11-21T03:57:11;0.65;;;0.65;;
11651;SDS011;5882;48.818;9.114;2023-11-21T03:59:59;0.70;;;0.70;;
11651;SDS011;5882;48.818;9.114;2023-11-21T04:02:45;1.85;;;0.70;;
11651;SDS011;5882;48.818;9.114;2023-11-21T04:05:39;0.60;;;0.60;;
11651;SDS011;5882;48.818;9.114;2023-11-21T04:08:26;0.70;;;0.70;;
11651;SDS011;5882;48.818;9.114;2023-11-21T04:11:11;0.80;;;0.80;;
11651;SDS011;5882;48.818;9.114;2023-11-21T04:13:59;0.70;;;0.70;;
11651;SDS011;5882;48.818;9.114;2023-11-21T04:16:45;0.60;;;0.60;;
11651;SDS011;5882;48.818;9.114;2023-11-21T04:19:30;0.70;;;0.70;;
11651;SDS011;5882;48.818;9.114;2023-11-21T04:22:17;0.90;;;0.82;;
11651;SDS011;5882;48.818;9.114;2023-11-21T04:25:02;0.80;;;0.80;;
11651;SDS011;5882;48.818;9.114;2023-11-21T04:27:48;1.58;;;0.70;;
11651;SDS011;5882;48.818;9.114;2023-11-21T04:30:33;0.75;;;0.75;;
11651;SDS011;5882;48.818;9.114;2023-11-21T04:33:18;0.80;;;0.80;;
11651;SDS011;5882;48.818;9.114;2023-11-21T04:36:08;0.70;;;0.70;;
11651;SDS011;5882;48.818;9.114;2023-11-21T04:38:55;0.75;;;0.75;;
11651;SDS011;5882;48.818;9.114;2023-11-21T04:41:40;0.70;;;0.70;;
11651;SDS011;5882;48.818;9.114;2023-11-21T04:44:26;0.70;;;0.70;;
11651;SDS011;5882;48.818;9.114;2023-11-21T04:47:11;0.65;;;0.65;;
11651;SDS011;5882;48.818;9.114;2023-11-21T04:49:57;0.90;;;0.90;;
11651;SDS011;5882;48.818;9.114;2023-11-21T04:52:42;0.70;;;0.70;;
11651;SDS011;5882;48.818;9.114;2023-11-21T04:55:29;0.65;;;0.65;;
11651;SDS011;5882;48.818;9.114;2023-11-21T04:58:14;0.63;;;0.63;;
11651;SDS011;5882;48.818;9.114;2023-11-21T05:01:00;0.70;;;0.70;;
11651;SDS011;5882;48.818;9.114;2023-11-21T05:03:46;1.95;;;0.80;;
11651;SDS011;5882;48.818;9.114;2023-11-21T05:06:32;0.80;;;0.80;;
11651;SDS011;5882;48.818;9.114;2023-11-21T05:09:17;0.80;;;0.80;;
11651;SDS011;5882;48.818;9.114;2023-11-21T05:12:04;0.70;;;0.70;;
11651;SDS011;5882;48.818;9.114;2023-11-21T05:14:50;0.80;;;0.80;;
11651;SDS011;5882;48.818;9.114;2023-11-21T05:17:35;0.70;;;0.70;;
11651;SDS011;5882;48.818;9.114;2023-11-21T05:20:20;0.80;;;0.80;;
11651;SDS011;5882;48.818;9.114;2023-11-21T05:23:08;0.90;;;0.80;;
11651;SDS011;5882;48.818;9.114;2023-11-21T05:25:53;0.77;;;0.77;;
11651;SDS011;5882;48.818;9.114;2023-11-21T05:28:44;0.90;;;0.90;;
11651;SDS011;5882;48.818;9.114;2023-11-21T05:31:29;1.08;;;0.80;;
11651;SDS011;5882;48.818;9.114;2023-11-21T05:34:14;1.00;;;1.00;;
11651;SDS011;5882;48.818;9.114;2023-11-21T05:37:00;0.80;;;0.80;;
11651;SDS011;5882;48.818;9.114;2023-11-21T05:39:45;0.88;;;0.88;;
11651;SDS011;5882;48.818;9.114;2023-11-21T05:42:30;0.75;;;0.75;;
11651;SDS011;5882;48.818;9.114;2023-11-21T05:45:17;0.98;;;0.90;;
11651;SDS011;5882;48.818;9.114;2023-11-21T05:48:04;1.80;;;0.75;;
11651;SDS011;5882;48.818;9.114;2023-11-21T05:50:50;0.90;;;0.90;;
11651;SDS011;5882;48.818;9.114;2023-11-21T05:53:37;0.90;;;0.90;;
11651;SDS011;5882;48.818;9.114;2023-11-21T05:56:22;1.40;;;1.00;;
11651;SDS011;5882;48.818;9.114;2023-11-21T05:59:09;1.30;;;1.08;;
11651;SDS011;5882;48.818;9.114;2023-11-21T06:01:56;0.82;;;0.82;;
11651;SDS011;5882;48.818;9.114;2023-11-21T06:04:42;0.80;;;0.80;;
11651;SDS011;5882;48.818;9.114;2023-11-21T06:07:27;0.90;;;0.90;;
11651;SDS011;5882;48.818;9.114;2023-11-21T06:10:13;0.80;;;0.80;;
11651;SDS011;5882;48.818;9.114;2023-11-21T06:12:59;0.82;;;0.82;;
11651;SDS011;5882;48.818;9.114;2023-11-21T06:15:47;0.90;;;0.90;;
11651;SDS011;5882;48.818;9.114;2023-11-21T06:18:34;0.88;;;0.88;;
11651;SDS011;5882;48.818;9.114;2023-11-21T06:21:19;0.73;;;0.73;;
11651;SDS011;5882;48.818;9.114;2023-11-21T06:24:04;0.90;;;0.90;;
11651;SDS011;5882;48.818;9.114;2023-11-21T06:26:50;1.40;;;1.30;;
11651;SDS011;5882;48.818;9.114;2023-11-21T06:29:36;1.20;;;1.10;;
11651;SDS011;5882;48.818;9.114;2023-11-21T06:32:21;1.23;;;1.13;;
11651;SDS011;5882;48.818;9.114;2023-11-21T06:35:07;1.13;;;1.13;;
11651;SDS011;5882;48.818;9.114;2023-11-21T06:37:56;1.55;;;1.45;;
11651;SDS011;5882;48.818;9.114;2023-11-21T06:40:41;1.10;;;1.00;;
11651;SDS011;5882;48.818;9.114;2023-11-21T06:43:28;2.38;;;1.35;;
11651;SDS011;5882;48.818;9.114;2023-11-21T06:49:11;1.48;;;1.23;;
11651;SDS011;5882;48.818;9.114;2023-11-21T06:51:57;1.00;;;1.00;;
11651;SDS011;5882;48.818;9.114;2023-11-21T06:54:45;1.25;;;1.15;;
11651;SDS011;5882;48.818;9.114;2023-11-21T06:57:34;1.13;;;1.10;;
11651;SDS011;5882;48.818;9.114;2023-11-21T07:00:19;1.20;;;1.10;;
11651;SDS011;5882;48.818;9.114;2023-11-21T07:03:07;1.23;;;1.20;;
11651;SDS011;5882;48.818;9.114;2023-11-21T07:05:53;1.40;;;1.30;;
11651;SDS011;5882;48.818;9.114;2023-11-21T07:08:48;1.08;;;1.08;;
11651;SDS011;5882;48.818;9.114;2023-11-21T07:11:33;1.27;;;1.17;;
11651;SDS011;5882;48.818;9.114;2023-11-21T07:14:18;1.23;;;1.17;;
11651;SDS011;5882;48.818;9.114;2023-11-21T07:17:04;1.30;;;1.20;;
11651;SDS011;5882;48.818;9.114;2023-11-21T07:19:50;1.73;;;1.55;;
11651;SDS011;5882;48.818;9.114;2023-11-21T07:22:47;1.40;;;1.10;;
11651;SDS011;5882;48.818;9.114;2023-11-21T07:25:35;1.05;;;1.00;;
11651;SDS011;5882;48.818;9.114;2023-11-21T07:28:20;2.33;;;1.50;;
11651;SDS011;5882;48.818;9.114;2023-11-21T07:31:07;1.55;;;1.45;;
11651;SDS011;5882;48.818;9.114;2023-11-21T07:34:00;1.40;;;1.30;;
11651;SDS011;5882;48.818;9.114;2023-11-21T07:36:46;1.40;;;1.30;;
11651;SDS011;5882;48.818;9.114;2023-11-21T07:39:31;1.52;;;1.42;;
11651;SDS011;5882;48.818;9.114;2023-11-21T07:42:18;1.40;;;1.30;;
11651;SDS011;5882;48.818;9.114;2023-11-21T07:45:03;1.08;;;1.08;;
11651;SDS011;5882;48.818;9.114;2023-11-21T07:47:48;1.42;;;1.33;;
11651;SDS011;5882;48.818;9.114;2023-11-21T07:50:35;1.83;;;1.20;;
11651;SDS011;5882;48.818;9.114;2023-11-21T07:53:21;0.82;;;0.82;;
11651;SDS011;5882;48.818;9.114;2023-11-21T07:56:07;1.20;;;1.13;;
11651;SDS011;5882;48.818;9.114;2023-11-21T07:58:54;1.02;;;1.00;;
11651;SDS011;5882;48.818;9.114;2023-11-21T08:01:39;1.13;;;1.02;;
11651;SDS011;5882;48.818;9.114;2023-11-21T08:04:29;1.30;;;1.20;;
11651;SDS011;5882;48.818;9.114;2023-11-21T08:07:16;1.10;;;1.10;;
11651;SDS011;5882;48.818;9.114;2023-11-21T08:10:02;1.10;;;1.08;;
11651;SDS011;5882;48.818;9.114;2023-11-21T08:12:48;1.17;;;1.08;;
11651;SDS011;5882;48.818;9.114;2023-11-21T08:15:35;1.08;;;1.08;;
11651;SDS011;5882;48.818;9.114;2023-11-21T08:18:21;1.25;;;1.20;;
11651;SDS011;5882;48.818;9.114;2023-11-21T09:15:48;0.90;;;0.90;;
11651;SDS011;5882;48.818;9.114;2023-11-21T09:18:34;0.85;;;0.85;;
11651;SDS011;5882;48.818;9.114;2023-11-21T09:21:19;1.00;;;0.90;;
11651;SDS011;5882;48.818;9.114;2023-11-21T09:24:05;0.90;;;0.90;;
11651;SDS011;5882;48.818;9.114;2023-11-21T09:26:52;1.10;;;0.90;;
11651;SDS011;5882;48.818;9.114;2023-11-21T09:29:38;0.85;;;0.85;;
11651;SDS011;5882;48.818;9.114;2023-11-21T09:32:25;0.85;;;0.85;;
11651;SDS011;5882;48.818;9.114;2023-11-21T09:35:10;0.93;;;0.93;;
11651;SDS011;5882;48.818;9.114;2023-11-21T09:37:55;0.80;;;0.80;;
11651;SDS011;5882;48.818;9.114;2023-11-21T09:40:40;0.80;;;0.80;;
11651;SDS011;5882;48.818;9.114;2023-11-21T09:43:26;0.82;;;0.82;;
11651;SDS011;5882;48.818;9.114;2023-11-21T09:46:13;0.80;;;0.80;;
11651;SDS011;5882;48.818;9.114;2023-11-21T09:49:08;0.77;;;0.77;;
11651;SDS011;5882;48.818;9.114;2023-11-21T09:51:57;1.10;;;1.00;;
11651;SDS011;5882;48.818;9.114;2023-11-21T09:54:43;0.70;;;0.60;;
11651;SDS011;5882;48.818;9.114;2023-11-21T09:57:41;0.90;;;0.90;;
11651;SDS011;5882;48.818;9.114;2023-11-21T10:04:19;0.80;;;0.80;;
11651;SDS011;5882;48.818;9.114;2023-11-21T10:07:16;0.70;;;0.70;;
11651;SDS011;5882;48.818;9.114;2023-11-21T10:10:14;1.38;;;1.20;;
11651;SDS011;5882;48.818;9.114;2023-11-21T10:13:04;0.73;;;0.73;;
11651;SDS011;5882;48.818;9.114;2023-11-21T10:15:51;0.70;;;0.70;;
11651;SDS011;5882;48.818;9.114;2023-11-21T10:18:37;0.70;;;0.70;;
11651;SDS011;5882;48.818;9.114;2023-11-21T10:21:29;0.70;;;0.70;;
11651;SDS011;5882;48.818;9.114;2023-11-21T10:27:27;0.70;;;0.70;;
11651;SDS011;5882;48.818;9.114;2023-11-21T10:30:21;0.70;;;0.70;;
11651;SDS011;5882;48.818;9.114;2023-11-21T10:33:07;0.70;;;0.70;;
11651;SDS011;5882;48.818;9.114;2023-11-21T10:35:55;0.80;;;0.80;;
11651;SDS011;5882;48.818;9.114;2023-11-21T10:38:49;1.65;;;0.95;;
11651;SDS011;5882;48.818;9.114;2023-11-21T10:59:35;0.80;;;0.80;;
11651;SDS011;5882;48.818;9.114;2023-11-21T11:02:23;1.00;;;1.00;;
11651;SDS011;5882;48.818;9.114;2023-11-21T11:05:14;1.10;;;1.00;;
11651;SDS011;5882;48.818;9.114;2023-11-21T11:08:06;1.20;;;1.00;;
11651;SDS011;5882;48.818;9.114;2023-11-21T11:10:53;0.90;;;0.88;;
11651;SDS011;5882;48.818;9.114;2023-11-21T11:13:38;1.15;;;1.05;;
11651;SDS011;5882;48.818;9.114;2023-11-21T11:16:29;0.95;;;0.95;;
11651;SDS011;5882;48.818;9.114;2023-11-21T11:19:14;1.00;;;0.95;;
11651;SDS011;5882;48.818;9.114;2023-11-21T11:22:05;1.02;;;1.02;;
11651;SDS011;5882;48.818;9.114;2023-11-21T11:25:14;0.90;;;0.90;;
11651;SDS011;5882;48.818;9.114;2023-11-21T11:28:03;0.80;;;0.80;;
11651;SDS011;5882;48.818;9.114;2023-11-21T11:30:53;1.52;;;1.00;;
11651;SDS011;5882;48.818;9.114;2023-11-21T11:33:50;1.10;;;1.05;;
11651;SDS011;5882;48.818;9.114;2023-11-21T11:36:39;1.58;;;1.30;;
11651;SDS011;5882;48.818;9.114;2023-11-21T11:39:32;1.10;;;1.10;;
11651;SDS011;5882;48.818;9.114;2023-11-21T11:42:20;1.40;;;1.30;;
11651;SDS011;5882;48.818;9.114;2023-11-21T11:45:18;1.10;;;1.10;;
11651;SDS011;5882;48.818;9.114;2023-11-21T11:48:05;0.90;;;0.90;;
11651;SDS011;5882;48.818;9.114;2023-11-21T11:51:02;0.95;;;0.95;;
11651;SDS011;5882;48.818;9.114;2023-11-21T11:53:48;1.10;;;1.10;;
11651;SDS011;5882;48.818;9.114;2023-11-21T11:56:33;1.15;;;1.15;;
11651;SDS011;5882;48.818;9.114;2023-11-21T11:59:22;1.00;;;1.00;;
11651;SDS011;5882;48.818;9.114;2023-11-21T12:02:09;1.23;;;1.13;;
11651;SDS011;5882;48.818;9.114;2023-11-21T12:04:55;1.00;;;1.00;;
11651;SDS011;5882;48.818;9.114;2023-11-21T12:07:44;0.82;;;0.82;;
11651;SDS011;5882;48.818;9.114;2023-11-21T12:10:35;0.80;;;0.80;;
11651;SDS011;5882;48.818;9.114;2023-11-21T12:13:20;0.80;;;0.80;;
11651;SDS011;5882;48.818;9.114;2023-11-21T12:16:07;0.80;;;0.80;;
11651;SDS011;5882;48.818;9.114;2023-11-21T12:18:55;0.70;;;0.70;;
11651;SDS011;5882;48.818;9.114;2023-11-21T12:21:42;1.00;;;1.00;;
11651;SDS011;5882;48.818;9.114;2023-11-21T12:24:29;0.80;;;0.80;;
11651;SDS011;5882;48.818;9.114;2023-11-21T12:27:16;0.70;;;0.70;;
11651;SDS011;5882;48.818;9.114;2023-11-21T12:30:04;0.93;;;0.93;;
11651;SDS011;5882;48.818;9.114;2023-11-21T12:32:55;0.80;;;0.80;;
11651;SDS011;5882;48.818;9.114;2023-11-21T12:35:41;0.90;;;0.90;;
11651;SDS011;5882;48.818;9.114;2023-11-21T12:38:33;0.90;;;0.90;;
11651;SDS011;5882;48.818;9.114;2023-11-21T12:44:25;1.30;;;1.20;;
11651;SDS011;5882;48.818;9.114;2023-11-21T12:47:15;1.40;;;1.30;;
11651;SDS011;5882;48.818;9.114;2023-11-21T12:50:04;1.42;;;1.30;;
11651;SDS011;5882;48.818;9.114;2023-11-21T12:52:58;1.85;;;1.73;;
11651;SDS011;5882;48.818;9.114;2023-11-21T12:55:43;1.45;;;1.35;;
11651;SDS011;5882;48.818;9.114;2023-11-21T12:58:33;0.95;;;0.95;;
11651;SDS011;5882;48.818;9.114;2023-11-21T13:01:21;1.00;;;1.00;;
11651;SDS011;5882;48.818;9.114;2023-11-21T13:04:13;0.80;;;0.80;;
11651;SDS011;5882;48.818;9.114;2023-11-21T13:07:02;0.80;;;0.80;;
11651;SDS011;5882;48.818;9.114;2023-11-21T13:09:57;0.73;;;0.73;;
11651;SDS011;5882;48.818;9.114;2023-11-21T13:12:43;0.85;;;0.82;;
11651;SDS011;5882;48.818;9.114;2023-11-21T13:15:28;0.60;;;0.60;;
11651;SDS011;5882;48.818;9.114;2023-11-21T13:18:16;0.60;;;0.60;;
11651;SDS011;5882;48.818;9.114;2023-11-21T13:21:02;0.70;;;0.70;;
11651;SDS011;5882;48.818;9.114;2023-11-21T13:23:53;0.80;;;0.80;;
11651;SDS011;5882;48.818;9.114;2023-11-21T13:26:38;0.90;;;0.90;;
11651;SDS011;5882;48.818;9.114;2023-11-21T13:29:24;0.90;;;0.90;;
11651;SDS011;5882;48.818;9.114;2023-11-21T13:32:10;0.90;;;0.90;;
11651;SDS011;5882;48.818;9.114;2023-11-21T13:34:57;1.10;;;1.10;;
11651;SDS011;5882;48.818;9.114;2023-11-21T13:37:45;1.30;;;1.20;;
11651;SDS011;5882;48.818;9.114;2023-11-21T13:40:32;1.63;;;1.15;;
11651;SDS011;5882;48.818;9.114;2023-11-21T13:43:24;1.52;;;1.20;;
11651;SDS011;5882;48.818;9.114;2023-11-21T13:46:12;1.10;;;1.00;;
11651;SDS011;5882;48.818;9.114;2023-11-21T13:49:00;1.13;;;1.08;;
11651;SDS011;5882;48.818;9.114;2023-11-21T13:51:47;2.92;;;1.13;;
11651;SDS011;5882;48.818;9.114;2023-11-21T13:54:36;1.13;;;1.13;;
11651;SDS011;5882;48.818;9.114;2023-11-21T13:57:21;1.25;;;1.23;;
11651;SDS011;5882;48.818;9.114;2023-11-21T14:00:07;1.60;;;1.50;;
11651;SDS011;5882;48.818;9.114;2023-11-21T14:03:27;1.38;;;0.93;;
11651;SDS011;5882;48.818;9.114;2023-11-21T14:06:23;1.20;;;1.10;;
11651;SDS011;5882;48.818;9.114;2023-11-21T14:09:18;1.00;;;1.00;;
11651;SDS011;5882;48.818;9.114;2023-11-21T14:12:06;0.95;;;0.95;;
11651;SDS011;5882;48.818;9.114;2023-11-21T14:14:51;1.63;;;1.23;;
11651;SDS011;5882;48.818;9.114;2023-11-21T14:17:39;1.20;;;1.20;;
11651;SDS011;5882;48.818;9.114;2023-11-21T14:20:25;1.55;;;1.45;;
11651;SDS011;5882;48.818;9.114;2023-11-21T14:23:13;1.38;;;1.27;;
11651;SDS011;5882;48.818;9.114;2023-11-21T14:26:05;1.42;;;1.33;;
11651;SDS011;5882;48.818;9.114;2023-11-21T14:28:53;1.42;;;1.35;;
11651;SDS011;5882;48.818;9.114;2023-11-21T14:31:38;1.63;;;1.40;;
11651;SDS011;5882;48.818;9.114;2023-11-21T14:34:27;1.75;;;1.35;;
11651;SDS011;5882;48.818;9.114;2023-11-21T14:37:16;1.42;;;1.13;;
11651;SDS011;5882;48.818;9.114;2023-11-21T14:40:01;1.00;;;1.00;;
11651;SDS011;5882;48.818;9.114;2023-11-21T14:42:49;2.35;;;1.48;;
11651;SDS011;5882;48.818;9.114;2023-11-21T14:45:36;1.20;;;1.20;;
11651;SDS011;5882;48.818;9.114;2023-11-21T14:48:21;1.38;;;1.27;;
11651;SDS011;5882;48.818;9.114;2023-11-21T14:51:22;1.30;;;1.25;;
11651;SDS011;5882;48.818;9.114;2023-11-21T14:54:11;2.38;;;1.23;;
11651;SDS011;5882;48.818;9.114;2023-11-21T14:56:55;1.40;;;1.30;;
11651;SDS011;5882;48.818;9.114;2023-11-21T14:59:44;1.40;;;1.30;;
11651;SDS011;5882;48.818;9.114;2023-11-21T15:02:30;1.00;;;1.00;;
11651;SDS011;5882;48.818;9.114;2023-11-21T15:05:29;1.70;;;1.60;;
11651;SDS011;5882;48.818;9.114;2023-11-21T15:08:15;1.25;;;1.10;;
11651;SDS011;5882;48.818;9.114;2023-11-21T15:11:05;1.60;;;1.50;;
11651;SDS011;5882;48.818;9.114;2023-11-21T15:13:53;1.15;;;1.15;;
11651;SDS011;5882;48.818;9.114;2023-11-21T15:16:39;1.52;;;1.42;;
11651;SDS011;5882;48.818;9.114;2023-11-21T15:19:27;1.42;;;1.33;;
11651;SDS011;5882;48.818;9.114;2023-11-21T15:22:13;1.20;;;1.10;;
11651;SDS011;5882;48.818;9.114;2023-11-21T15:24:59;1.60;;;1.50;;
11651;SDS011;5882;48.818;9.114;2023-11-21T15:27:51;1.67;;;1.58;;
11651;SDS011;5882;48.818;9.114;2023-11-21T15:30:38;1.73;;;1.63;;
11651;SDS011;5882;48.818;9.114;2023-11-21T15:33:24;1.80;;;1.70;;
11651;SDS011;5882;48.818;9.114;2023-11-21T15:36:10;1.52;;;1.42;;
11651;SDS011;5882;48.818;9.114;2023-11-21T15:38:57;1.40;;;1.30;;
11651;SDS011;5882;48.818;9.114;2023-11-21T15:41:43;1.63;;;1.50;;
11651;SDS011;5882;48.818;9.114;2023-11-21T15:44:28;1.40;;;1.30;;
11651;SDS011;5882;48.818;9.114;2023-11-21T15:47:16;1.70;;;1.60;;
11651;SDS011;5882;48.818;9.114;2023-11-21T15:50:12;1.92;;;1.83;;
11651;SDS011;5882;48.818;9.114;2023-11-21T15:52:58;2.40;;;1.90;;
11651;SDS011;5882;48.818;9.114;2023-11-21T15:55:43;1.88;;;1.77;;
11651;SDS011;5882;48.818;9.114;2023-11-21T15:58:28;1.95;;;1.70;;
11651;SDS011;5882;48.818;9.114;2023-11-21T16:01:20;1.80;;;1.60;;
11651;SDS011;5882;48.818;9.114;2023-11-21T16:04:05;1.77;;;1.65;;
11651;SDS011;5882;48.818;9.114;2023-11-21T16:06:52;2.17;;;1.98;;
11651;SDS011;5882;48.818;9.114;2023-11-21T16:09:37;1.83;;;1.73;;
11651;SDS011;5882;48.818;9.114;2023-11-21T16:12:24;2.15;;;1.95;;
11651;SDS011;5882;48.818;9.114;2023-11-21T16:15:09;2.03;;;1.85;;
11651;SDS011;5882;48.818;9.114;2023-11-21T16:17:54;2.00;;;1.90;;
11651;SDS011;5882;48.818;9.114;2023-11-21T16:20:39;3.47;;;1.98;;
11651;SDS011;5882;48.818;9.114;2023-11-21T16:23:28;2.97;;;2.67;;
11651;SDS011;5882;48.818;9.114;2023-11-21T16:26:15;2.20;;;2.00;;
11651;SDS011;5882;48.818;9.114;2023-11-21T16:29:01;3.67;;;3.03;;
11651;SDS011;5882;48.818;9.114;2023-11-21T16:31:47;2.60;;;2.40;;
11651;SDS011;5882;48.818;9.114;2023-11-21T16:34:34;2.50;;;2.30;;
11651;SDS011;5882;48.818;9.114;2023-11-21T16:37:20;3.00;;;2.70;;
11651;SDS011;5882;48.818;9.114;2023-11-21T16:40:10;2.70;;;2.50;;
11651;SDS011;5882;48.818;9.114;2023-11-21T16:42:55;3.15;;;2.67;;
11651;SDS011;5882;48.818;9.114;2023-11-21T16:45:43;2.83;;;2.58;;
11651;SDS011;5882;48.818;9.114;2023-11-21T16:48:33;2.47;;;2.28;;
11651;SDS011;5882;48.818;9.114;2023-11-21T16:51:18;3.22;;;2.92;;
11651;SDS011;5882;48.818;9.114;2023-11-21T16:54:03;2.70;;;2.50;;
11651;SDS011;5882;48.818;9.114;2023-11-21T16:56:50;2.83;;;2.50;;
11651;SDS011;5882;48.818;9.114;2023-11-21T16:59:35;2.85;;;2.55;;
11651;SDS011;5882;48.818;9.114;2023-11-21T17:02:20;3.38;;;2.58;;
11651;SDS011;5882;48.818;9.114;2023-11-21T17:05:06;4.30;;;2.58;;
11651;SDS011;5882;48.818;9.114;2023-11-21T17:07:51;2.67;;;2.40;;
11651;SDS011;5882;48.818;9.114;2023-11-21T17:10:37;2.10;;;1.90;;
11651;SDS011;5882;48.818;9.114;2023-11-21T17:13:24;3.00;;;2.70;;
11651;SDS011;5882;48.818;9.114;2023-11-21T17:16:09;2.83;;;2.60;;
11651;SDS011;5882;48.818;9.114;2023-11-21T17:18:57;2.83;;;2.53;;
11651;SDS011;5882;48.818;9.114;2023-11-21T17:21:47;2.30;;;2.10;;
11651;SDS011;5882;48.818;9.114;2023-11-21T17:24:32;3.10;;;2.60;;
11651;SDS011;5882;48.818;9.114;2023-11-21T17:27:20;3.90;;;3.50;;
11651;SDS011;5882;48.818;9.114;2023-11-21T17:30:09;6.63;;;5.90;;
11651;SDS011;5882;48.818;9.114;2023-11-21T17:32:55;5.20;;;4.32;;
11651;SDS011;5882;48.818;9.114;2023-11-21T17:35:40;4.10;;;3.65;;
11651;SDS011;5882;48.818;9.114;2023-11-21T17:38:25;3.85;;;3.35;;
11651;SDS011;5882;48.818;9.114;2023-11-21T17:41:10;5.63;;;4.88;;
11651;SDS011;5882;48.818;9.114;2023-11-21T17:43:56;5.43;;;4.90;;
11651;SDS011;5882;48.818;9.114;2023-11-21T17:46:43;5.45;;;4.25;;
11651;SDS011;5882;48.818;9.114;2023-11-21T17:49:28;3.88;;;3.20;;
11651;SDS011;5882;48.818;9.114;2023-11-21T17:52:15;3.78;;;3.47;;
11651;SDS011;5882;48.818;9.114;2023-11-21T17:55:04;4.57;;;3.72;;
11651;SDS011;5882;48.818;9.114;2023-11-21T17:57:50;3.42;;;3.05;;
11651;SDS011;5882;48.818;9.114;2023-11-21T18:00:37;3.63;;;2.83;;
11651;SDS011;5882;48.818;9.114;2023-11-21T18:03:24;4.30;;;3.28;;
11651;SDS011;5882;48.818;9.114;2023-11-21T18:06:10;5.85;;;3.95;;
11651;SDS011;5882;48.818;9.114;2023-11-21T18:08:56;4.72;;;3.97;;
11651;SDS011;5882;48.818;9.114;2023-11-21T18:11:43;5.07;;;4.28;;
11651;SDS011;5882;48.818;9.114;2023-11-21T18:14:28;5.47;;;4.57;;
11651;SDS011;5882;48.818;9.114;2023-11-21T18:17:14;6.43;;;4.57;;
11651;SDS011;5882;48.818;9.114;2023-11-21T18:20:02;4.13;;;3.20;;
11651;SDS011;5882;48.818;9.114;2023-11-21T18:22:47;3.65;;;3.17;;
11651;SDS011;5882;48.818;9.114;2023-11-21T18:25:32;3.33;;;2.97;;
11651;SDS011;5882;48.818;9.114;2023-11-21T18:28:17;3.30;;;3.00;;